createdAt,value
2017-08-27T00:00:03.849Z,88.20
2017-08-27T00:00:08.133Z,88.20
2017-08-27T00:00:12.416Z,88.30
2017-08-27T00:00:16.683Z,88.20
2017-08-27T00:00:20.928Z,88.20
2017-08-27T00:00:25.190Z,88.20
2017-08-27T00:00:29.472Z,88.20
2017-08-27T00:00:33.742Z,88.20
2017-08-27T00:00:38.049Z,88.20
2017-08-27T00:00:42.296Z,88.20
2017-08-27T00:00:46.597Z,88.20
2017-08-27T00:00:50.858Z,88.20
2017-08-27T00:00:55.890Z,88.20
2017-08-27T00:01:00.156Z,88.20
2017-08-27T00:01:04.430Z,88.20
2017-08-27T00:01:08.700Z,88.20
2017-08-27T00:01:12.966Z,88.20
2017-08-27T00:01:17.243Z,88.20
2017-08-27T00:01:21.518Z,88.20
2017-08-27T00:01:25.805Z,88.20
2017-08-27T00:01:30.049Z,88.20
2017-08-27T00:01:34.327Z,88.20
2017-08-27T00:01:38.582Z,88.20
2017-08-27T00:01:43.638Z,88.20
2017-08-27T00:01:47.902Z,88.20
2017-08-27T00:01:52.182Z,88.20
2017-08-27T00:01:56.454Z,88.20
2017-08-27T00:02:00.721Z,87.80
2017-08-27T00:02:04.989Z,88.20
2017-08-27T00:02:09.266Z,88.10
2017-08-27T00:02:13.531Z,88.60
2017-08-27T00:02:17.794Z,88.10
2017-08-27T00:02:22.076Z,88.80
2017-08-27T00:02:26.350Z,88.20
2017-08-27T00:02:30.614Z,88.10
2017-08-27T00:02:34.885Z,88.10
2017-08-27T00:02:39.164Z,88.10
2017-08-27T00:02:43.444Z,88.10
2017-08-27T00:02:47.726Z,88.10
2017-08-27T00:02:51.999Z,88.10
2017-08-27T00:02:56.278Z,88.10
2017-08-27T00:03:00.560Z,88.10
2017-08-27T00:03:04.861Z,88.20
2017-08-27T00:03:09.120Z,88.00
2017-08-27T00:03:13.372Z,88.10
2017-08-27T00:03:17.649Z,88.00
2017-08-27T00:03:21.926Z,88.10
2017-08-27T00:03:26.190Z,88.00
2017-08-27T00:03:30.473Z,88.00
2017-08-27T00:03:34.739Z,88.30
2017-08-27T00:03:39.007Z,88.00
2017-08-27T00:03:43.264Z,88.00
2017-08-27T00:03:47.534Z,88.00
2017-08-27T00:03:51.858Z,88.10
2017-08-27T00:03:56.116Z,88.00
2017-08-27T00:04:00.430Z,88.00
2017-08-27T00:04:04.664Z,88.00
2017-08-27T00:04:08.942Z,88.10
2017-08-27T00:04:13.192Z,88.10
2017-08-27T00:04:17.476Z,88.10
2017-08-27T00:04:21.735Z,88.10
2017-08-27T00:04:25.994Z,88.10
2017-08-27T00:04:30.266Z,88.10
2017-08-27T00:04:34.513Z,88.10
2017-08-27T00:04:38.776Z,88.10
2017-08-27T00:04:43.064Z,88.10
2017-08-27T00:04:47.334Z,88.10
2017-08-27T00:04:51.585Z,88.10
2017-08-27T00:04:55.870Z,88.10
2017-08-27T00:05:00.152Z,88.20
2017-08-27T00:05:04.412Z,88.10
2017-08-27T00:05:09.423Z,88.10
2017-08-27T00:05:13.710Z,88.10
2017-08-27T00:05:18.740Z,88.80
2017-08-27T00:05:23.020Z,88.10
2017-08-27T00:05:27.282Z,88.10
2017-08-27T00:05:31.566Z,88.10
2017-08-27T00:05:35.830Z,88.10
2017-08-27T00:05:40.098Z,88.20
2017-08-27T00:05:44.365Z,88.80
2017-08-27T00:05:48.620Z,88.10
2017-08-27T00:05:52.877Z,88.20
2017-08-27T00:05:57.146Z,88.20
2017-08-27T00:06:01.404Z,88.10
2017-08-27T00:06:05.678Z,88.10
2017-08-27T00:06:09.922Z,88.10
2017-08-27T00:06:14.186Z,88.10
2017-08-27T00:06:18.466Z,88.20
2017-08-27T00:06:22.737Z,88.10
2017-08-27T00:06:26.999Z,88.20
2017-08-27T00:06:31.266Z,88.20
2017-08-27T00:06:35.548Z,88.20
2017-08-27T00:06:39.813Z,88.00
2017-08-27T00:06:44.074Z,88.20
2017-08-27T00:06:48.350Z,88.20
2017-08-27T00:06:52.618Z,88.20
2017-08-27T00:06:56.875Z,88.10
2017-08-27T00:07:01.134Z,88.10
2017-08-27T00:07:05.403Z,88.10
2017-08-27T00:07:09.674Z,88.20
2017-08-27T00:07:13.938Z,88.20
2017-08-27T00:07:18.219Z,88.20
2017-08-27T00:07:22.498Z,88.20
2017-08-27T00:07:26.744Z,88.10
2017-08-27T00:07:31.009Z,88.20
2017-08-27T00:07:35.291Z,88.30
2017-08-27T00:07:39.552Z,88.30
2017-08-27T00:07:43.831Z,88.20
2017-08-27T00:07:48.118Z,88.20
2017-08-27T00:07:52.382Z,88.30
2017-08-27T00:07:56.663Z,88.20
2017-08-27T00:08:00.918Z,88.20
2017-08-27T00:08:05.195Z,88.20
2017-08-27T00:08:09.452Z,88.30
2017-08-27T00:08:13.730Z,88.20
2017-08-27T00:08:18.749Z,88.30
2017-08-27T00:08:23.029Z,88.20
2017-08-27T00:08:27.342Z,88.20
2017-08-27T00:08:31.638Z,88.20
2017-08-27T00:08:35.906Z,88.20
2017-08-27T00:08:40.164Z,88.20
2017-08-27T00:08:44.434Z,88.20
2017-08-27T00:08:48.698Z,88.20
2017-08-27T00:08:52.985Z,88.20
2017-08-27T00:08:57.232Z,88.20
2017-08-27T00:09:01.507Z,88.20
2017-08-27T00:09:05.788Z,88.20
2017-08-27T00:09:10.054Z,88.20
2017-08-27T00:09:15.101Z,88.20
2017-08-27T00:09:19.372Z,88.20
2017-08-27T00:09:23.638Z,88.20
2017-08-27T00:09:28.009Z,88.20
2017-08-27T00:09:32.257Z,88.20
2017-08-27T00:09:36.525Z,88.20
2017-08-27T00:09:40.816Z,88.20
2017-08-27T00:09:45.060Z,88.20
2017-08-27T00:09:49.326Z,88.20
2017-08-27T00:09:53.586Z,87.90
2017-08-27T00:09:57.876Z,88.20
2017-08-27T00:10:02.911Z,88.20
2017-08-27T00:10:07.182Z,88.20
2017-08-27T00:10:11.436Z,88.20
2017-08-27T00:10:15.704Z,88.30
2017-08-27T00:10:19.961Z,88.20
2017-08-27T00:10:24.232Z,88.20
2017-08-27T00:10:28.494Z,88.10
2017-08-27T00:10:32.780Z,88.10
2017-08-27T00:10:37.081Z,88.20
2017-08-27T00:10:41.335Z,88.10
2017-08-27T00:10:45.631Z,88.20
2017-08-27T00:10:49.899Z,88.20
2017-08-27T00:10:54.152Z,88.10
2017-08-27T00:10:58.436Z,88.20
2017-08-27T00:11:02.696Z,88.20
2017-08-27T00:11:06.966Z,88.10
2017-08-27T00:11:11.234Z,88.20
2017-08-27T00:11:15.539Z,88.10
2017-08-27T00:11:19.776Z,88.10
2017-08-27T00:11:24.047Z,88.20
2017-08-27T00:11:28.313Z,88.10
2017-08-27T00:11:32.596Z,88.20
2017-08-27T00:11:36.853Z,88.20
2017-08-27T00:11:41.109Z,88.20
2017-08-27T00:11:45.391Z,88.20
2017-08-27T00:11:50.441Z,88.20
2017-08-27T00:11:54.706Z,88.10
2017-08-27T00:11:58.982Z,88.10
2017-08-27T00:12:03.241Z,87.80
2017-08-27T00:12:07.519Z,88.10
2017-08-27T00:12:12.576Z,88.20
2017-08-27T00:12:17.611Z,88.10
2017-08-27T00:12:21.880Z,88.10
2017-08-27T00:12:26.128Z,88.10
2017-08-27T00:12:30.392Z,88.10
2017-08-27T00:12:34.660Z,88.10
2017-08-27T00:12:38.951Z,88.10
2017-08-27T00:12:43.229Z,88.10
2017-08-27T00:12:47.500Z,88.20
2017-08-27T00:12:51.763Z,88.10
2017-08-27T00:12:56.016Z,88.10
2017-08-27T00:13:00.298Z,88.10
2017-08-27T00:13:04.568Z,88.10
2017-08-27T00:13:08.815Z,88.10
2017-08-27T00:13:13.091Z,88.10
2017-08-27T00:13:17.349Z,88.10
2017-08-27T00:13:21.608Z,88.20
2017-08-27T00:13:25.860Z,88.50
2017-08-27T00:13:30.156Z,88.10
2017-08-27T00:13:34.408Z,88.20
2017-08-27T00:13:38.660Z,88.10
2017-08-27T00:13:42.924Z,88.10
2017-08-27T00:13:47.206Z,88.20
2017-08-27T00:13:51.480Z,88.20
2017-08-27T00:13:55.746Z,88.20
2017-08-27T00:14:00.033Z,88.20
2017-08-27T00:14:04.289Z,88.20
2017-08-27T00:14:08.552Z,88.10
2017-08-27T00:14:12.826Z,88.10
2017-08-27T00:14:17.099Z,88.20
2017-08-27T00:14:21.370Z,88.10
2017-08-27T00:14:25.634Z,88.10
2017-08-27T00:14:29.913Z,88.10
2017-08-27T00:14:34.182Z,88.10
2017-08-27T00:14:38.447Z,88.00
2017-08-27T00:14:42.696Z,88.00
2017-08-27T00:14:46.980Z,88.10
2017-08-27T00:14:51.252Z,88.10
2017-08-27T00:14:55.504Z,88.10
2017-08-27T00:14:59.770Z,88.10
2017-08-27T00:15:04.025Z,88.10
2017-08-27T00:15:08.305Z,88.10
2017-08-27T00:15:12.552Z,88.10
2017-08-27T00:15:16.820Z,88.10
2017-08-27T00:15:21.096Z,88.10
2017-08-27T00:15:25.345Z,88.10
2017-08-27T00:15:29.622Z,88.10
2017-08-27T00:15:33.897Z,88.20
2017-08-27T00:15:38.153Z,88.10
2017-08-27T00:15:42.409Z,88.20
2017-08-27T00:15:46.690Z,88.20
2017-08-27T00:15:50.964Z,88.20
2017-08-27T00:15:55.226Z,88.20
2017-08-27T00:15:59.516Z,88.20
2017-08-27T00:16:03.760Z,88.20
2017-08-27T00:16:08.814Z,88.20
2017-08-27T00:16:13.072Z,88.20
2017-08-27T00:16:17.352Z,88.20
2017-08-27T00:16:21.629Z,88.20
2017-08-27T00:16:25.898Z,88.20
2017-08-27T00:16:30.140Z,88.20
2017-08-27T00:16:34.392Z,88.20
2017-08-27T00:16:38.670Z,88.20
2017-08-27T00:16:43.707Z,88.20
2017-08-27T00:16:47.980Z,88.20
2017-08-27T00:16:52.223Z,88.20
2017-08-27T00:16:56.492Z,88.30
2017-08-27T00:17:01.539Z,88.20
2017-08-27T00:17:05.806Z,88.20
2017-08-27T00:17:10.863Z,88.40
2017-08-27T00:17:15.100Z,88.20
2017-08-27T00:17:19.382Z,88.30
2017-08-27T00:17:23.636Z,88.40
2017-08-27T00:17:27.920Z,88.30
2017-08-27T00:17:32.205Z,88.40
2017-08-27T00:17:36.470Z,88.40
2017-08-27T00:17:40.770Z,88.40
2017-08-27T00:17:45.040Z,88.40
2017-08-27T00:17:49.338Z,88.40
2017-08-27T00:17:54.375Z,88.40
2017-08-27T00:17:58.642Z,88.40
2017-08-27T00:18:03.670Z,89.00
2017-08-27T00:18:08.690Z,88.40
2017-08-27T00:18:12.983Z,88.30
2017-08-27T00:18:17.268Z,88.30
2017-08-27T00:18:21.527Z,88.30
2017-08-27T00:18:25.787Z,88.30
2017-08-27T00:18:30.041Z,88.30
2017-08-27T00:18:34.332Z,88.30
2017-08-27T00:18:38.599Z,88.30
2017-08-27T00:18:42.868Z,88.30
2017-08-27T00:18:47.142Z,88.30
2017-08-27T00:18:51.411Z,88.30
2017-08-27T00:18:55.674Z,88.30
2017-08-27T00:18:59.952Z,88.20
2017-08-27T00:19:04.230Z,88.30
2017-08-27T00:19:08.510Z,88.20
2017-08-27T00:19:12.762Z,88.20
2017-08-27T00:19:17.064Z,88.20
2017-08-27T00:19:21.300Z,88.20
2017-08-27T00:19:25.590Z,88.20
2017-08-27T00:19:29.866Z,88.20
2017-08-27T00:19:34.138Z,88.20
2017-08-27T00:19:38.402Z,88.20
2017-08-27T00:19:42.662Z,88.20
2017-08-27T00:19:46.948Z,88.20
2017-08-27T00:19:51.211Z,88.20
2017-08-27T00:19:55.508Z,88.20
2017-08-27T00:19:59.746Z,88.20
2017-08-27T00:20:04.020Z,88.30
2017-08-27T00:20:08.302Z,88.30
2017-08-27T00:20:12.563Z,88.30
2017-08-27T00:20:16.812Z,88.30
2017-08-27T00:20:21.086Z,88.30
2017-08-27T00:20:25.350Z,88.30
2017-08-27T00:20:29.616Z,88.30
2017-08-27T00:20:33.908Z,88.30
2017-08-27T00:20:38.166Z,88.30
2017-08-27T00:20:42.430Z,88.30
2017-08-27T00:20:46.684Z,88.30
2017-08-27T00:20:50.957Z,88.30
2017-08-27T00:20:55.227Z,88.30
2017-08-27T00:20:59.489Z,88.30
2017-08-27T00:21:04.522Z,88.40
2017-08-27T00:21:09.564Z,88.40
2017-08-27T00:21:13.838Z,88.30
2017-08-27T00:21:18.114Z,88.40
2017-08-27T00:21:22.396Z,88.40
2017-08-27T00:21:26.683Z,88.40
2017-08-27T00:21:30.952Z,88.40
2017-08-27T00:21:35.218Z,88.40
2017-08-27T00:21:39.496Z,88.40
2017-08-27T00:21:43.780Z,89.00
2017-08-27T00:21:48.042Z,88.30
2017-08-27T00:21:52.310Z,88.30
2017-08-27T00:21:56.592Z,88.30
2017-08-27T00:22:00.854Z,88.20
2017-08-27T00:22:05.135Z,88.30
2017-08-27T00:22:09.416Z,88.30
2017-08-27T00:22:13.688Z,88.30
2017-08-27T00:22:17.941Z,88.30
2017-08-27T00:22:22.218Z,88.70
2017-08-27T00:22:26.499Z,88.30
2017-08-27T00:22:30.767Z,88.40
2017-08-27T00:22:35.016Z,88.40
2017-08-27T00:22:40.069Z,88.40
2017-08-27T00:22:44.330Z,88.40
2017-08-27T00:22:48.580Z,88.40
2017-08-27T00:22:52.844Z,88.40
2017-08-27T00:22:57.114Z,88.40
2017-08-27T00:23:01.408Z,88.40
2017-08-27T00:23:05.685Z,88.50
2017-08-27T00:23:09.958Z,88.50
2017-08-27T00:23:14.240Z,87.90
2017-08-27T00:23:18.549Z,88.50
2017-08-27T00:23:22.800Z,88.50
2017-08-27T00:23:27.070Z,88.50
2017-08-27T00:23:31.355Z,88.50
2017-08-27T00:23:35.614Z,88.50
2017-08-27T00:23:39.892Z,88.60
2017-08-27T00:23:44.162Z,88.60
2017-08-27T00:23:48.445Z,88.60
2017-08-27T00:23:52.724Z,88.60
2017-08-27T00:23:56.973Z,88.60
2017-08-27T00:24:01.250Z,88.60
2017-08-27T00:24:05.515Z,88.50
2017-08-27T00:24:09.779Z,88.70
2017-08-27T00:24:14.056Z,88.60
2017-08-27T00:24:18.299Z,88.70
2017-08-27T00:24:22.569Z,88.70
2017-08-27T00:24:26.838Z,88.70
2017-08-27T00:24:31.124Z,88.70
2017-08-27T00:24:35.390Z,89.20
2017-08-27T00:24:39.654Z,88.70
2017-08-27T00:24:43.904Z,88.70
2017-08-27T00:24:48.184Z,88.70
2017-08-27T00:24:52.450Z,88.60
2017-08-27T00:24:57.457Z,88.60
2017-08-27T00:25:01.725Z,88.60
2017-08-27T00:25:06.002Z,88.60
2017-08-27T00:25:10.266Z,88.70
2017-08-27T00:25:14.526Z,88.60
2017-08-27T00:25:18.813Z,88.70
2017-08-27T00:25:23.104Z,88.70
2017-08-27T00:25:27.355Z,88.70
2017-08-27T00:25:31.620Z,88.70
2017-08-27T00:25:35.902Z,88.70
2017-08-27T00:25:40.156Z,88.70
2017-08-27T00:25:44.438Z,88.70
2017-08-27T00:25:48.712Z,88.70
2017-08-27T00:25:52.972Z,88.70
2017-08-27T00:25:57.243Z,88.70
2017-08-27T00:26:01.510Z,88.70
2017-08-27T00:26:05.796Z,88.80
2017-08-27T00:26:10.048Z,88.70
2017-08-27T00:26:14.314Z,88.80
2017-08-27T00:26:18.568Z,89.40
2017-08-27T00:26:22.846Z,88.80
2017-08-27T00:26:27.120Z,88.80
2017-08-27T00:26:31.387Z,88.80
2017-08-27T00:26:35.664Z,88.80
2017-08-27T00:26:40.702Z,88.80
2017-08-27T00:26:44.956Z,88.80
2017-08-27T00:26:49.211Z,88.80
2017-08-27T00:26:53.474Z,88.90
2017-08-27T00:26:57.757Z,88.90
2017-08-27T00:27:02.028Z,89.40
2017-08-27T00:27:06.302Z,88.90
2017-08-27T00:27:10.561Z,88.90
2017-08-27T00:27:14.859Z,88.90
2017-08-27T00:27:19.129Z,88.90
2017-08-27T00:27:23.376Z,88.90
2017-08-27T00:27:27.671Z,88.90
2017-08-27T00:27:31.934Z,89.00
2017-08-27T00:27:36.199Z,89.00
2017-08-27T00:27:40.492Z,89.00
2017-08-27T00:27:44.741Z,89.00
2017-08-27T00:27:49.015Z,89.00
2017-08-27T00:27:53.278Z,89.00
2017-08-27T00:27:57.562Z,89.00
2017-08-27T00:28:01.826Z,89.50
2017-08-27T00:28:06.091Z,89.00
2017-08-27T00:28:11.144Z,89.10
2017-08-27T00:28:15.424Z,89.00
2017-08-27T00:28:19.676Z,89.10
2017-08-27T00:28:23.948Z,89.10
2017-08-27T00:28:28.218Z,89.10
2017-08-27T00:28:33.235Z,89.10
2017-08-27T00:28:37.515Z,89.10
2017-08-27T00:28:41.781Z,89.10
2017-08-27T00:28:46.076Z,89.10
2017-08-27T00:28:50.332Z,89.10
2017-08-27T00:28:54.608Z,89.10
2017-08-27T00:28:58.873Z,89.10
2017-08-27T00:29:03.120Z,89.10
2017-08-27T00:29:07.384Z,89.10
2017-08-27T00:29:11.646Z,89.10
2017-08-27T00:29:15.914Z,89.10
2017-08-27T00:29:20.190Z,89.10
2017-08-27T00:29:24.440Z,89.10
2017-08-27T00:29:28.719Z,89.10
2017-08-27T00:29:32.996Z,89.20
2017-08-27T00:29:37.271Z,89.20
2017-08-27T00:29:41.544Z,89.20
2017-08-27T00:29:45.814Z,89.20
2017-08-27T00:29:50.082Z,89.20
2017-08-27T00:29:54.360Z,89.20
2017-08-27T00:29:58.618Z,89.20
2017-08-27T00:30:02.896Z,89.20
2017-08-27T00:30:07.171Z,89.30
2017-08-27T00:30:11.449Z,89.20
2017-08-27T00:30:15.718Z,89.20
2017-08-27T00:30:19.986Z,89.30
2017-08-27T00:30:24.259Z,89.30
2017-08-27T00:30:28.508Z,89.30
2017-08-27T00:30:32.764Z,89.30
2017-08-27T00:30:37.049Z,89.30
2017-08-27T00:30:41.310Z,89.20
2017-08-27T00:30:45.568Z,89.20
2017-08-27T00:30:49.824Z,89.30
2017-08-27T00:30:54.845Z,89.20
2017-08-27T00:30:59.126Z,89.20
2017-08-27T00:31:03.396Z,89.20
2017-08-27T00:31:07.636Z,89.30
2017-08-27T00:31:11.919Z,89.20
2017-08-27T00:31:16.164Z,89.30
2017-08-27T00:31:20.444Z,89.20
2017-08-27T00:31:24.714Z,89.30
2017-08-27T00:31:29.004Z,89.20
2017-08-27T00:31:33.266Z,89.20
2017-08-27T00:31:37.520Z,89.20
2017-08-27T00:31:41.794Z,89.20
2017-08-27T00:31:46.044Z,89.30
2017-08-27T00:31:51.074Z,89.30
2017-08-27T00:31:55.343Z,89.30
2017-08-27T00:31:59.645Z,89.20
2017-08-27T00:32:03.888Z,89.30
2017-08-27T00:32:08.144Z,89.30
2017-08-27T00:32:12.429Z,89.20
2017-08-27T00:32:16.730Z,89.30
2017-08-27T00:32:20.991Z,89.20
2017-08-27T00:32:25.246Z,89.30
2017-08-27T00:32:29.514Z,89.30
2017-08-27T00:32:33.791Z,89.30
2017-08-27T00:32:38.044Z,89.20
2017-08-27T00:32:42.325Z,89.20
2017-08-27T00:32:46.603Z,89.30
2017-08-27T00:32:50.892Z,89.40
2017-08-27T00:32:55.149Z,89.40
2017-08-27T00:32:59.426Z,89.30
2017-08-27T00:33:03.703Z,89.30
2017-08-27T00:33:07.970Z,89.30
2017-08-27T00:33:12.224Z,89.30
2017-08-27T00:33:16.503Z,89.30
2017-08-27T00:33:20.770Z,89.30
2017-08-27T00:33:25.044Z,89.40
2017-08-27T00:33:29.332Z,89.40
2017-08-27T00:33:33.613Z,89.40
2017-08-27T00:33:37.875Z,89.40
2017-08-27T00:33:42.130Z,89.40
2017-08-27T00:33:46.407Z,89.40
2017-08-27T00:33:50.657Z,89.40
2017-08-27T00:33:54.935Z,89.40
2017-08-27T00:33:59.212Z,89.40
2017-08-27T00:34:03.492Z,89.40
2017-08-27T00:34:07.768Z,89.40
2017-08-27T00:34:12.814Z,89.60
2017-08-27T00:34:17.052Z,89.50
2017-08-27T00:34:21.339Z,89.50
2017-08-27T00:34:25.612Z,89.50
2017-08-27T00:34:29.876Z,89.50
2017-08-27T00:34:34.142Z,89.60
2017-08-27T00:34:38.418Z,89.60
2017-08-27T00:34:42.671Z,89.60
2017-08-27T00:34:46.942Z,89.60
2017-08-27T00:34:51.228Z,89.60
2017-08-27T00:34:55.490Z,89.60
2017-08-27T00:34:59.757Z,89.60
2017-08-27T00:35:04.022Z,89.60
2017-08-27T00:35:08.321Z,89.60
2017-08-27T00:35:12.570Z,89.60
2017-08-27T00:35:16.821Z,89.70
2017-08-27T00:35:21.098Z,89.70
2017-08-27T00:35:25.367Z,89.70
2017-08-27T00:35:29.630Z,89.70
2017-08-27T00:35:33.890Z,89.70
2017-08-27T00:35:38.166Z,89.70
2017-08-27T00:35:42.434Z,89.70
2017-08-27T00:35:46.694Z,89.70
2017-08-27T00:35:50.972Z,89.70
2017-08-27T00:35:55.244Z,89.70
2017-08-27T00:35:59.527Z,89.70
2017-08-27T00:36:03.804Z,89.70
2017-08-27T00:36:08.096Z,89.70
2017-08-27T00:36:12.345Z,89.80
2017-08-27T00:36:16.612Z,89.80
2017-08-27T00:36:20.888Z,89.80
2017-08-27T00:36:25.144Z,89.80
2017-08-27T00:36:29.411Z,89.80
2017-08-27T00:36:33.690Z,89.80
2017-08-27T00:36:37.981Z,89.90
2017-08-27T00:36:42.319Z,89.90
2017-08-27T00:36:46.566Z,89.90
2017-08-27T00:36:50.824Z,89.90
2017-08-27T00:36:55.081Z,89.80
2017-08-27T00:37:00.114Z,90.00
2017-08-27T00:37:04.369Z,89.80
2017-08-27T00:37:08.638Z,90.00
2017-08-27T00:37:12.924Z,90.00
2017-08-27T00:37:17.196Z,90.00
2017-08-27T00:37:21.468Z,89.90
2017-08-27T00:37:25.738Z,90.00
2017-08-27T00:37:30.017Z,89.90
2017-08-27T00:37:35.058Z,90.00
2017-08-27T00:37:39.331Z,90.00
2017-08-27T00:37:43.621Z,90.00
2017-08-27T00:37:47.902Z,90.00
2017-08-27T00:37:52.155Z,90.00
2017-08-27T00:37:56.418Z,90.00
2017-08-27T00:38:00.700Z,90.00
2017-08-27T00:38:04.993Z,90.00
2017-08-27T00:38:09.246Z,90.00
2017-08-27T00:38:13.511Z,90.20
2017-08-27T00:38:17.757Z,90.00
2017-08-27T00:38:22.045Z,90.20
2017-08-27T00:38:26.310Z,90.00
2017-08-27T00:38:30.586Z,90.00
2017-08-27T00:38:34.840Z,90.30
2017-08-27T00:38:39.106Z,90.00
2017-08-27T00:38:43.382Z,90.00
2017-08-27T00:38:47.668Z,90.00
2017-08-27T00:38:51.944Z,90.00
2017-08-27T00:38:56.195Z,90.10
2017-08-27T00:39:00.470Z,90.10
2017-08-27T00:39:04.749Z,90.10
2017-08-27T00:39:09.001Z,90.10
2017-08-27T00:39:13.288Z,90.10
2017-08-27T00:39:17.562Z,90.10
2017-08-27T00:39:21.823Z,90.10
2017-08-27T00:39:26.088Z,90.10
2017-08-27T00:39:30.376Z,90.10
2017-08-27T00:39:34.655Z,90.10
2017-08-27T00:39:38.919Z,90.20
2017-08-27T00:39:43.202Z,90.50
2017-08-27T00:39:47.492Z,90.20
2017-08-27T00:39:51.744Z,90.20
2017-08-27T00:39:56.024Z,90.20
2017-08-27T00:40:00.316Z,90.20
2017-08-27T00:40:04.570Z,90.20
2017-08-27T00:40:08.853Z,90.20
2017-08-27T00:40:13.113Z,90.20
2017-08-27T00:40:17.389Z,90.20
2017-08-27T00:40:21.668Z,90.20
2017-08-27T00:40:25.927Z,90.20
2017-08-27T00:40:30.970Z,90.20
2017-08-27T00:40:35.245Z,90.20
2017-08-27T00:40:39.520Z,90.20
2017-08-27T00:40:43.772Z,90.20
2017-08-27T00:40:48.040Z,90.20
2017-08-27T00:40:52.316Z,90.20
2017-08-27T00:40:56.590Z,90.50
2017-08-27T00:41:00.851Z,90.20
2017-08-27T00:41:05.122Z,90.20
2017-08-27T00:41:09.382Z,90.20
2017-08-27T00:41:13.650Z,90.20
2017-08-27T00:41:17.912Z,90.20
2017-08-27T00:41:22.190Z,90.20
2017-08-27T00:41:26.453Z,90.20
2017-08-27T00:41:31.507Z,90.20
2017-08-27T00:41:35.780Z,90.20
2017-08-27T00:41:40.057Z,90.30
2017-08-27T00:41:44.317Z,90.30
2017-08-27T00:41:48.594Z,90.30
2017-08-27T00:41:52.873Z,90.30
2017-08-27T00:41:57.134Z,90.30
2017-08-27T00:42:01.408Z,90.30
2017-08-27T00:42:05.674Z,90.30
2017-08-27T00:42:09.974Z,90.30
2017-08-27T00:42:14.247Z,90.30
2017-08-27T00:42:18.514Z,90.30
2017-08-27T00:42:22.795Z,90.30
2017-08-27T00:42:27.068Z,90.30
2017-08-27T00:42:31.331Z,90.30
2017-08-27T00:42:35.596Z,90.40
2017-08-27T00:42:39.857Z,90.40
2017-08-27T00:42:44.151Z,90.30
2017-08-27T00:42:48.433Z,90.40
2017-08-27T00:42:52.703Z,90.40
2017-08-27T00:42:56.940Z,90.40
2017-08-27T00:43:01.224Z,90.40
2017-08-27T00:43:05.478Z,90.40
2017-08-27T00:43:09.740Z,90.40
2017-08-27T00:43:13.993Z,90.40
2017-08-27T00:43:18.248Z,90.40
2017-08-27T00:43:22.519Z,90.40
2017-08-27T00:43:26.796Z,90.40
2017-08-27T00:43:31.044Z,90.40
2017-08-27T00:43:35.305Z,90.40
2017-08-27T00:43:39.582Z,90.40
2017-08-27T00:43:43.861Z,90.40
2017-08-27T00:43:48.112Z,90.40
2017-08-27T00:43:52.379Z,90.70
2017-08-27T00:43:56.656Z,90.40
2017-08-27T00:44:00.940Z,90.40
2017-08-27T00:44:05.206Z,90.40
2017-08-27T00:44:09.458Z,90.40
2017-08-27T00:44:13.705Z,90.40
2017-08-27T00:44:17.988Z,90.40
2017-08-27T00:44:22.268Z,90.40
2017-08-27T00:44:26.552Z,90.40
2017-08-27T00:44:30.814Z,90.70
2017-08-27T00:44:35.079Z,90.40
2017-08-27T00:44:40.125Z,90.40
2017-08-27T00:44:44.425Z,90.50
2017-08-27T00:44:48.704Z,90.50
2017-08-27T00:44:52.967Z,90.40
2017-08-27T00:44:57.228Z,90.50
2017-08-27T00:45:01.502Z,90.50
2017-08-27T00:45:05.778Z,90.40
2017-08-27T00:45:10.050Z,90.40
2017-08-27T00:45:14.327Z,90.30
2017-08-27T00:45:18.576Z,90.50
2017-08-27T00:45:23.610Z,90.40
2017-08-27T00:45:28.652Z,90.70
2017-08-27T00:45:32.914Z,90.40
2017-08-27T00:45:37.196Z,90.40
2017-08-27T00:45:41.463Z,90.70
2017-08-27T00:45:45.727Z,90.40
2017-08-27T00:45:50.737Z,90.40
2017-08-27T00:45:55.028Z,90.40
2017-08-27T00:45:59.298Z,90.40
2017-08-27T00:46:03.548Z,90.40
2017-08-27T00:46:07.815Z,90.40
2017-08-27T00:46:12.082Z,90.40
2017-08-27T00:46:16.355Z,90.40
2017-08-27T00:46:20.618Z,90.40
2017-08-27T00:46:24.896Z,90.40
2017-08-27T00:46:29.180Z,90.40
2017-08-27T00:46:33.457Z,90.40
2017-08-27T00:46:37.708Z,90.40
2017-08-27T00:46:41.970Z,90.40
2017-08-27T00:46:46.241Z,90.40
2017-08-27T00:46:51.261Z,90.40
2017-08-27T00:46:55.530Z,90.40
2017-08-27T00:46:59.800Z,90.40
2017-08-27T00:47:04.056Z,90.40
2017-08-27T00:47:09.083Z,90.40
2017-08-27T00:47:13.354Z,90.40
2017-08-27T00:47:17.601Z,90.40
2017-08-27T00:47:21.882Z,90.40
2017-08-27T00:47:26.927Z,90.40
2017-08-27T00:47:31.196Z,90.40
2017-08-27T00:47:35.457Z,90.40
2017-08-27T00:47:39.726Z,90.40
2017-08-27T00:47:44.020Z,90.40
2017-08-27T00:47:48.296Z,90.40
2017-08-27T00:47:52.562Z,90.40
2017-08-27T00:47:56.840Z,90.40
2017-08-27T00:48:01.098Z,90.40
2017-08-27T00:48:05.362Z,90.40
2017-08-27T00:48:09.626Z,90.40
2017-08-27T00:48:13.912Z,90.40
2017-08-27T00:48:18.174Z,90.40
2017-08-27T00:48:22.454Z,90.40
2017-08-27T00:48:26.726Z,90.40
2017-08-27T00:48:30.982Z,90.40
2017-08-27T00:48:35.236Z,90.40
2017-08-27T00:48:39.516Z,90.40
2017-08-27T00:48:43.772Z,90.40
2017-08-27T00:48:48.024Z,90.40
2017-08-27T00:48:52.305Z,90.40
2017-08-27T00:48:56.580Z,90.50
2017-08-27T00:49:00.864Z,90.50
2017-08-27T00:49:05.890Z,90.50
2017-08-27T00:49:10.154Z,90.50
2017-08-27T00:49:14.412Z,90.50
2017-08-27T00:49:18.746Z,90.50
2017-08-27T00:49:23.012Z,90.50
2017-08-27T00:49:27.303Z,90.50
2017-08-27T00:49:31.560Z,90.70
2017-08-27T00:49:35.821Z,90.50
2017-08-27T00:49:40.086Z,90.50
2017-08-27T00:49:44.360Z,90.50
2017-08-27T00:49:48.642Z,90.50
2017-08-27T00:49:52.916Z,90.50
2017-08-27T00:49:57.929Z,90.50
2017-08-27T00:50:02.198Z,90.50
2017-08-27T00:50:06.510Z,90.50
2017-08-27T00:50:11.564Z,90.50
2017-08-27T00:50:15.836Z,90.50
2017-08-27T00:50:20.078Z,90.50
2017-08-27T00:50:24.372Z,90.50
2017-08-27T00:50:28.644Z,90.50
2017-08-27T00:50:32.906Z,90.50
2017-08-27T00:50:37.188Z,90.50
2017-08-27T00:50:41.492Z,90.50
2017-08-27T00:50:45.746Z,90.50
2017-08-27T00:50:50.025Z,90.50
2017-08-27T00:50:54.283Z,90.50
2017-08-27T00:50:58.560Z,90.50
2017-08-27T00:51:02.826Z,90.50
2017-08-27T00:51:07.104Z,90.50
2017-08-27T00:51:11.372Z,90.50
2017-08-27T00:51:15.655Z,90.50
2017-08-27T00:51:19.910Z,90.50
2017-08-27T00:51:24.185Z,90.50
2017-08-27T00:51:28.440Z,90.50
2017-08-27T00:51:32.733Z,90.50
2017-08-27T00:51:36.976Z,90.70
2017-08-27T00:51:41.268Z,90.50
2017-08-27T00:51:45.540Z,90.50
2017-08-27T00:51:49.806Z,90.50
2017-08-27T00:51:54.066Z,90.50
2017-08-27T00:51:58.460Z,90.50
2017-08-27T00:52:03.511Z,90.50
2017-08-27T00:52:07.776Z,90.50
2017-08-27T00:52:12.821Z,90.50
2017-08-27T00:52:17.092Z,90.50
2017-08-27T00:52:21.354Z,90.50
2017-08-27T00:52:25.628Z,90.50
2017-08-27T00:52:29.913Z,90.50
2017-08-27T00:52:34.177Z,90.50
2017-08-27T00:52:38.423Z,90.50
2017-08-27T00:52:42.692Z,90.50
2017-08-27T00:52:46.970Z,90.50
2017-08-27T00:52:51.244Z,90.50
2017-08-27T00:52:55.522Z,90.50
2017-08-27T00:52:59.790Z,90.50
2017-08-27T00:53:04.075Z,90.60
2017-08-27T00:53:08.336Z,90.60
2017-08-27T00:53:12.598Z,90.60
2017-08-27T00:53:16.879Z,90.60
2017-08-27T00:53:21.142Z,90.60
2017-08-27T00:53:25.401Z,90.60
2017-08-27T00:53:29.664Z,90.60
2017-08-27T00:53:33.939Z,90.60
2017-08-27T00:53:38.217Z,90.60
2017-08-27T00:53:42.466Z,90.70
2017-08-27T00:53:46.764Z,90.90
2017-08-27T00:53:51.016Z,90.70
2017-08-27T00:53:55.290Z,90.70
2017-08-27T00:53:59.549Z,90.70
2017-08-27T00:54:03.844Z,90.60
2017-08-27T00:54:08.105Z,90.70
2017-08-27T00:54:12.351Z,90.70
2017-08-27T00:54:16.623Z,90.70
2017-08-27T00:54:20.890Z,90.70
2017-08-27T00:54:25.162Z,90.70
2017-08-27T00:54:29.430Z,90.70
2017-08-27T00:54:33.696Z,90.70
2017-08-27T00:54:37.983Z,90.70
2017-08-27T00:54:42.238Z,90.70
2017-08-27T00:54:46.502Z,90.70
2017-08-27T00:54:51.545Z,90.70
2017-08-27T00:54:55.806Z,90.70
2017-08-27T00:55:00.848Z,90.50
2017-08-27T00:55:05.110Z,90.70
2017-08-27T00:55:09.369Z,90.70
2017-08-27T00:55:13.632Z,90.70
2017-08-27T00:55:17.913Z,90.70
2017-08-27T00:55:22.184Z,90.70
2017-08-27T00:55:26.459Z,90.70
2017-08-27T00:55:30.739Z,90.60
2017-08-27T00:55:35.022Z,90.60